sensor_id;sensor_type;location;lat;lon;timestamp;P1;durP1;ratioP1;P2;durP2;ratioP2
59854;SDS011;45732;52.850;6.896;2023-04-03T00:01:30;4.32;;;1.52;;
59854;SDS011;45732;52.850;6.896;2023-04-03T00:03:55;4.28;;;1.20;;
59854;SDS011;45732;52.850;6.896;2023-04-03T00:06:22;3.72;;;1.40;;
59854;SDS011;45732;52.850;6.896;2023-04-03T00:08:48;3.72;;;1.30;;
59854;SDS011;45732;52.850;6.896;2023-04-03T00:11:14;4.22;;;1.70;;
59854;SDS011;45732;52.850;6.896;2023-04-03T00:13:40;2.95;;;1.30;;
59854;SDS011;45732;52.850;6.896;2023-04-03T00:16:07;4.45;;;1.30;;
59854;SDS011;45732;52.850;6.896;2023-04-03T00:18:34;3.85;;;1.15;;
59854;SDS011;45732;52.850;6.896;2023-04-03T00:21:00;4.28;;;1.50;;
59854;SDS011;45732;52.850;6.896;2023-04-03T00:23:25;4.28;;;1.42;;
59854;SDS011;45732;52.850;6.896;2023-04-03T00:25:51;4.63;;;1.50;;
59854;SDS011;45732;52.850;6.896;2023-04-03T00:28:17;4.55;;;1.20;;
59854;SDS011;45732;52.850;6.896;2023-04-03T00:30:43;4.70;;;1.60;;
59854;SDS011;45732;52.850;6.896;2023-04-03T00:33:13;3.33;;;1.30;;
59854;SDS011;45732;52.850;6.896;2023-04-03T00:35:39;3.85;;;1.38;;
59854;SDS011;45732;52.850;6.896;2023-04-03T00:38:05;4.70;;;1.40;;
59854;SDS011;45732;52.850;6.896;2023-04-03T00:40:36;4.18;;;1.50;;
59854;SDS011;45732;52.850;6.896;2023-04-03T00:43:05;3.65;;;1.40;;
59854;SDS011;45732;52.850;6.896;2023-04-03T00:45:42;6.72;;;1.60;;
59854;SDS011;45732;52.850;6.896;2023-04-03T00:48:15;7.10;;;1.80;;
59854;SDS011;45732;52.850;6.896;2023-04-03T00:50:45;3.47;;;1.27;;
59854;SDS011;45732;52.850;6.896;2023-04-03T00:53:13;4.68;;;1.73;;
59854;SDS011;45732;52.850;6.896;2023-04-03T00:55:42;4.00;;;1.50;;
59854;SDS011;45732;52.850;6.896;2023-04-03T00:58:09;2.90;;;1.42;;
59854;SDS011;45732;52.850;6.896;2023-04-03T01:00:37;5.35;;;1.20;;
59854;SDS011;45732;52.850;6.896;2023-04-03T01:03:05;4.50;;;1.60;;
59854;SDS011;45732;52.850;6.896;2023-04-03T01:05:31;4.63;;;1.40;;
59854;SDS011;45732;52.850;6.896;2023-04-03T01:07:57;5.80;;;1.60;;
59854;SDS011;45732;52.850;6.896;2023-04-03T01:10:23;4.95;;;1.70;;
59854;SDS011;45732;52.850;6.896;2023-04-03T01:12:50;6.10;;;1.80;;
59854;SDS011;45732;52.850;6.896;2023-04-03T01:15:21;4.05;;;1.40;;
59854;SDS011;45732;52.850;6.896;2023-04-03T01:20:31;7.03;;;1.63;;
59854;SDS011;45732;52.850;6.896;2023-04-03T01:25:55;5.00;;;1.60;;
59854;SDS011;45732;52.850;6.896;2023-04-03T01:28:23;7.00;;;1.50;;
59854;SDS011;45732;52.850;6.896;2023-04-03T01:33:54;4.00;;;1.55;;
59854;SDS011;45732;52.850;6.896;2023-04-03T01:36:22;5.03;;;1.90;;
59854;SDS011;45732;52.850;6.896;2023-04-03T01:38:53;3.90;;;1.50;;
59854;SDS011;45732;52.850;6.896;2023-04-03T01:41:20;5.30;;;1.80;;
59854;SDS011;45732;52.850;6.896;2023-04-03T01:43:47;7.05;;;1.98;;
59854;SDS011;45732;52.850;6.896;2023-04-03T01:46:14;5.00;;;1.70;;
59854;SDS011;45732;52.850;6.896;2023-04-03T01:48:43;6.55;;;1.95;;
59854;SDS011;45732;52.850;6.896;2023-04-03T01:51:09;5.70;;;1.70;;
59854;SDS011;45732;52.850;6.896;2023-04-03T01:53:35;7.22;;;1.70;;
59854;SDS011;45732;52.850;6.896;2023-04-03T01:56:01;5.50;;;1.55;;
59854;SDS011;45732;52.850;6.896;2023-04-03T01:58:27;4.47;;;1.70;;
59854;SDS011;45732;52.850;6.896;2023-04-03T02:00:52;4.80;;;1.70;;
59854;SDS011;45732;52.850;6.896;2023-04-03T02:03:19;6.88;;;2.10;;
59854;SDS011;45732;52.850;6.896;2023-04-03T02:05:45;6.60;;;1.73;;
59854;SDS011;45732;52.850;6.896;2023-04-03T02:08:11;4.75;;;1.65;;
59854;SDS011;45732;52.850;6.896;2023-04-03T02:10:38;6.93;;;1.92;;
59854;SDS011;45732;52.850;6.896;2023-04-03T02:13:03;7.13;;;1.70;;
59854;SDS011;45732;52.850;6.896;2023-04-03T02:15:30;4.80;;;1.80;;
59854;SDS011;45732;52.850;6.896;2023-04-03T02:17:56;4.20;;;1.77;;
59854;SDS011;45732;52.850;6.896;2023-04-03T02:20:21;4.88;;;1.80;;
59854;SDS011;45732;52.850;6.896;2023-04-03T02:22:47;5.93;;;1.80;;
59854;SDS011;45732;52.850;6.896;2023-04-03T02:25:13;5.53;;;1.67;;
59854;SDS011;45732;52.850;6.896;2023-04-03T02:27:39;4.78;;;1.70;;
59854;SDS011;45732;52.850;6.896;2023-04-03T02:30:05;5.00;;;1.65;;
59854;SDS011;45732;52.850;6.896;2023-04-03T02:32:31;5.38;;;1.90;;
59854;SDS011;45732;52.850;6.896;2023-04-03T02:34:57;4.75;;;1.60;;
59854;SDS011;45732;52.850;6.896;2023-04-03T02:37:23;6.57;;;2.05;;
59854;SDS011;45732;52.850;6.896;2023-04-03T02:39:49;4.22;;;1.30;;
59854;SDS011;45732;52.850;6.896;2023-04-03T02:42:15;5.38;;;1.55;;
59854;SDS011;45732;52.850;6.896;2023-04-03T02:44:41;5.85;;;1.83;;
59854;SDS011;45732;52.850;6.896;2023-04-03T02:47:06;6.88;;;1.95;;
59854;SDS011;45732;52.850;6.896;2023-04-03T02:49:32;4.40;;;1.95;;
59854;SDS011;45732;52.850;6.896;2023-04-03T02:51:58;4.70;;;1.98;;
59854;SDS011;45732;52.850;6.896;2023-04-03T02:54:23;4.10;;;1.60;;
59854;SDS011;45732;52.850;6.896;2023-04-03T02:56:52;5.53;;;1.70;;
59854;SDS011;45732;52.850;6.896;2023-04-03T02:59:18;6.25;;;2.10;;
59854;SDS011;45732;52.850;6.896;2023-04-03T03:01:44;6.80;;;2.50;;
59854;SDS011;45732;52.850;6.896;2023-04-03T03:04:10;8.60;;;2.28;;
59854;SDS011;45732;52.850;6.896;2023-04-03T03:06:36;4.53;;;1.88;;
59854;SDS011;45732;52.850;6.896;2023-04-03T03:09:02;6.40;;;1.90;;
59854;SDS011;45732;52.850;6.896;2023-04-03T03:11:28;7.55;;;1.90;;
59854;SDS011;45732;52.850;6.896;2023-04-03T03:13:54;7.25;;;2.00;;
59854;SDS011;45732;52.850;6.896;2023-04-03T03:16:20;6.32;;;1.90;;
59854;SDS011;45732;52.850;6.896;2023-04-03T03:18:46;7.80;;;2.20;;
59854;SDS011;45732;52.850;6.896;2023-04-03T03:21:12;7.90;;;2.30;;
59854;SDS011;45732;52.850;6.896;2023-04-03T03:23:38;5.88;;;2.30;;
59854;SDS011;45732;52.850;6.896;2023-04-03T03:26:05;8.20;;;2.65;;
59854;SDS011;45732;52.850;6.896;2023-04-03T03:28:33;7.20;;;3.15;;
59854;SDS011;45732;52.850;6.896;2023-04-03T03:31:01;5.57;;;2.10;;
59854;SDS011;45732;52.850;6.896;2023-04-03T03:33:27;7.00;;;2.30;;
59854;SDS011;45732;52.850;6.896;2023-04-03T03:35:53;5.35;;;1.92;;
59854;SDS011;45732;52.850;6.896;2023-04-03T03:38:20;7.20;;;2.00;;
59854;SDS011;45732;52.850;6.896;2023-04-03T03:40:49;6.65;;;2.10;;
59854;SDS011;45732;52.850;6.896;2023-04-03T03:43:16;7.03;;;2.35;;
59854;SDS011;45732;52.850;6.896;2023-04-03T03:45:42;5.30;;;1.98;;
59854;SDS011;45732;52.850;6.896;2023-04-03T03:48:07;6.13;;;2.13;;
59854;SDS011;45732;52.850;6.896;2023-04-03T03:50:33;5.18;;;1.80;;
59854;SDS011;45732;52.850;6.896;2023-04-03T03:52:59;7.25;;;2.40;;
59854;SDS011;45732;52.850;6.896;2023-04-03T03:55:25;6.38;;;2.33;;
59854;SDS011;45732;52.850;6.896;2023-04-03T03:57:51;7.40;;;2.17;;
59854;SDS011;45732;52.850;6.896;2023-04-03T04:00:17;7.03;;;2.25;;
59854;SDS011;45732;52.850;6.896;2023-04-03T04:02:43;5.47;;;2.38;;
59854;SDS011;45732;52.850;6.896;2023-04-03T04:05:09;7.18;;;2.30;;
59854;SDS011;45732;52.850;6.896;2023-04-03T04:07:35;7.35;;;2.70;;
59854;SDS011;45732;52.850;6.896;2023-04-03T04:10:01;6.50;;;2.13;;
59854;SDS011;45732;52.850;6.896;2023-04-03T04:12:27;10.55;;;2.83;;
59854;SDS011;45732;52.850;6.896;2023-04-03T04:14:52;8.30;;;2.45;;
59854;SDS011;45732;52.850;6.896;2023-04-03T04:17:18;10.07;;;2.60;;
59854;SDS011;45732;52.850;6.896;2023-04-03T04:19:44;8.27;;;2.72;;
59854;SDS011;45732;52.850;6.896;2023-04-03T04:22:09;6.43;;;2.53;;
59854;SDS011;45732;52.850;6.896;2023-04-03T04:24:35;8.27;;;2.50;;
59854;SDS011;45732;52.850;6.896;2023-04-03T04:27:01;7.93;;;2.50;;
59854;SDS011;45732;52.850;6.896;2023-04-03T04:29:26;7.00;;;2.50;;
59854;SDS011;45732;52.850;6.896;2023-04-03T04:31:52;8.07;;;2.47;;
59854;SDS011;45732;52.850;6.896;2023-04-03T04:34:18;5.88;;;2.40;;
59854;SDS011;45732;52.850;6.896;2023-04-03T04:36:43;7.13;;;2.42;;
59854;SDS011;45732;52.850;6.896;2023-04-03T04:39:09;4.70;;;2.00;;
59854;SDS011;45732;52.850;6.896;2023-04-03T04:41:35;9.80;;;2.55;;
59854;SDS011;45732;52.850;6.896;2023-04-03T04:44:01;5.10;;;2.00;;
59854;SDS011;45732;52.850;6.896;2023-04-03T04:46:26;7.72;;;2.47;;
59854;SDS011;45732;52.850;6.896;2023-04-03T04:48:52;9.32;;;2.70;;
59854;SDS011;45732;52.850;6.896;2023-04-03T04:51:18;8.02;;;2.40;;
59854;SDS011;45732;52.850;6.896;2023-04-03T04:53:43;7.20;;;2.88;;
59854;SDS011;45732;52.850;6.896;2023-04-03T04:56:10;8.20;;;2.92;;
59854;SDS011;45732;52.850;6.896;2023-04-03T04:58:35;8.13;;;2.60;;
59854;SDS011;45732;52.850;6.896;2023-04-03T05:01:08;7.97;;;2.60;;
59854;SDS011;45732;52.850;6.896;2023-04-03T05:03:34;9.30;;;2.75;;
59854;SDS011;45732;52.850;6.896;2023-04-03T05:06:01;8.13;;;2.70;;
59854;SDS011;45732;52.850;6.896;2023-04-03T05:08:26;9.07;;;2.67;;
59854;SDS011;45732;52.850;6.896;2023-04-03T05:10:52;7.63;;;3.08;;
59854;SDS011;45732;52.850;6.896;2023-04-03T05:13:18;6.13;;;2.40;;
59854;SDS011;45732;52.850;6.896;2023-04-03T05:15:45;7.72;;;2.60;;
59854;SDS011;45732;52.850;6.896;2023-04-03T05:18:11;7.97;;;2.90;;
59854;SDS011;45732;52.850;6.896;2023-04-03T05:20:37;7.55;;;3.13;;
59854;SDS011;45732;52.850;6.896;2023-04-03T05:23:03;9.52;;;3.22;;
59854;SDS011;45732;52.850;6.896;2023-04-03T05:25:29;9.65;;;3.08;;
59854;SDS011;45732;52.850;6.896;2023-04-03T05:27:55;8.27;;;3.33;;
59854;SDS011;45732;52.850;6.896;2023-04-03T05:30:21;8.35;;;2.65;;
59854;SDS011;45732;52.850;6.896;2023-04-03T05:32:47;9.32;;;3.08;;
59854;SDS011;45732;52.850;6.896;2023-04-03T05:35:13;8.52;;;3.15;;
59854;SDS011;45732;52.850;6.896;2023-04-03T05:37:39;10.65;;;3.20;;
59854;SDS011;45732;52.850;6.896;2023-04-03T05:40:05;10.60;;;2.88;;
59854;SDS011;45732;52.850;6.896;2023-04-03T05:42:32;6.82;;;2.72;;
59854;SDS011;45732;52.850;6.896;2023-04-03T05:44:57;8.77;;;3.00;;
59854;SDS011;45732;52.850;6.896;2023-04-03T05:47:23;10.02;;;2.83;;
59854;SDS011;45732;52.850;6.896;2023-04-03T05:49:49;9.40;;;3.05;;
59854;SDS011;45732;52.850;6.896;2023-04-03T05:54:43;8.35;;;3.00;;
59854;SDS011;45732;52.850;6.896;2023-04-03T05:57:11;8.05;;;3.25;;
59854;SDS011;45732;52.850;6.896;2023-04-03T05:59:37;9.38;;;3.38;;
59854;SDS011;45732;52.850;6.896;2023-04-03T06:02:03;7.15;;;3.10;;
59854;SDS011;45732;52.850;6.896;2023-04-03T06:04:28;11.18;;;3.10;;
59854;SDS011;45732;52.850;6.896;2023-04-03T06:06:55;8.68;;;3.85;;
59854;SDS011;45732;52.850;6.896;2023-04-03T06:09:23;6.35;;;2.90;;
59854;SDS011;45732;52.850;6.896;2023-04-03T06:11:51;8.48;;;3.40;;
59854;SDS011;45732;52.850;6.896;2023-04-03T06:14:17;11.20;;;3.60;;
59854;SDS011;45732;52.850;6.896;2023-04-03T06:16:43;8.88;;;3.50;;
59854;SDS011;45732;52.850;6.896;2023-04-03T06:19:10;8.07;;;3.78;;
59854;SDS011;45732;52.850;6.896;2023-04-03T06:21:36;10.50;;;3.65;;
59854;SDS011;45732;52.850;6.896;2023-04-03T06:24:03;7.40;;;3.28;;
59854;SDS011;45732;52.850;6.896;2023-04-03T06:26:29;9.02;;;3.65;;
59854;SDS011;45732;52.850;6.896;2023-04-03T06:28:55;9.02;;;3.53;;
59854;SDS011;45732;52.850;6.896;2023-04-03T06:31:21;11.45;;;3.65;;
59854;SDS011;45732;52.850;6.896;2023-04-03T06:33:47;9.70;;;3.75;;
59854;SDS011;45732;52.850;6.896;2023-04-03T06:36:13;10.65;;;3.35;;
59854;SDS011;45732;52.850;6.896;2023-04-03T06:38:39;8.55;;;3.40;;
59854;SDS011;45732;52.850;6.896;2023-04-03T06:41:05;8.63;;;3.67;;
59854;SDS011;45732;52.850;6.896;2023-04-03T06:43:31;8.90;;;3.45;;
59854;SDS011;45732;52.850;6.896;2023-04-03T06:45:57;9.45;;;3.58;;
59854;SDS011;45732;52.850;6.896;2023-04-03T06:48:23;9.55;;;3.10;;
59854;SDS011;45732;52.850;6.896;2023-04-03T06:50:48;7.70;;;2.97;;
59854;SDS011;45732;52.850;6.896;2023-04-03T06:53:14;8.48;;;2.72;;
59854;SDS011;45732;52.850;6.896;2023-04-03T06:55:40;8.65;;;3.03;;
59854;SDS011;45732;52.850;6.896;2023-04-03T06:58:06;7.80;;;2.58;;
59854;SDS011;45732;52.850;6.896;2023-04-03T07:00:32;7.65;;;2.38;;
59854;SDS011;45732;52.850;6.896;2023-04-03T07:02:57;9.93;;;2.40;;
59854;SDS011;45732;52.850;6.896;2023-04-03T07:05:23;9.23;;;2.00;;
59854;SDS011;45732;52.850;6.896;2023-04-03T07:07:50;6.88;;;2.13;;
59854;SDS011;45732;52.850;6.896;2023-04-03T07:10:16;9.05;;;2.10;;
59854;SDS011;45732;52.850;6.896;2023-04-03T07:12:42;7.30;;;2.17;;
59854;SDS011;45732;52.850;6.896;2023-04-03T07:15:08;8.07;;;2.28;;
59854;SDS011;45732;52.850;6.896;2023-04-03T07:17:34;6.43;;;1.83;;
59854;SDS011;45732;52.850;6.896;2023-04-03T07:20:01;6.47;;;2.20;;
59854;SDS011;45732;52.850;6.896;2023-04-03T07:22:27;7.28;;;2.50;;
59854;SDS011;45732;52.850;6.896;2023-04-03T07:24:53;7.00;;;2.25;;
59854;SDS011;45732;52.850;6.896;2023-04-03T07:27:19;8.23;;;2.03;;
59854;SDS011;45732;52.850;6.896;2023-04-03T07:29:44;7.35;;;2.40;;
59854;SDS011;45732;52.850;6.896;2023-04-03T07:32:10;6.57;;;2.05;;
59854;SDS011;45732;52.850;6.896;2023-04-03T07:34:36;9.43;;;2.08;;
59854;SDS011;45732;52.850;6.896;2023-04-03T07:37:02;9.40;;;2.22;;
59854;SDS011;45732;52.850;6.896;2023-04-03T07:39:28;5.80;;;1.85;;
59854;SDS011;45732;52.850;6.896;2023-04-03T07:41:53;8.30;;;2.50;;
59854;SDS011;45732;52.850;6.896;2023-04-03T07:44:23;6.80;;;2.00;;
59854;SDS011;45732;52.850;6.896;2023-04-03T07:46:49;5.78;;;1.70;;
59854;SDS011;45732;52.850;6.896;2023-04-03T07:49:15;6.00;;;2.00;;
59854;SDS011;45732;52.850;6.896;2023-04-03T07:51:43;5.82;;;1.95;;
59854;SDS011;45732;52.850;6.896;2023-04-03T07:54:09;6.88;;;2.03;;
59854;SDS011;45732;52.850;6.896;2023-04-03T07:56:35;4.50;;;1.80;;
59854;SDS011;45732;52.850;6.896;2023-04-03T07:59:01;6.57;;;1.90;;
59854;SDS011;45732;52.850;6.896;2023-04-03T08:01:27;5.50;;;1.90;;
59854;SDS011;45732;52.850;6.896;2023-04-03T08:03:53;5.95;;;1.77;;
59854;SDS011;45732;52.850;6.896;2023-04-03T08:06:19;5.70;;;1.85;;
59854;SDS011;45732;52.850;6.896;2023-04-03T08:08:45;6.35;;;1.98;;
59854;SDS011;45732;52.850;6.896;2023-04-03T08:11:11;6.85;;;1.85;;
59854;SDS011;45732;52.850;6.896;2023-04-03T08:13:37;8.40;;;2.03;;
59854;SDS011;45732;52.850;6.896;2023-04-03T08:16:09;7.05;;;2.03;;
59854;SDS011;45732;52.850;6.896;2023-04-03T08:18:41;7.05;;;1.80;;
59854;SDS011;45732;52.850;6.896;2023-04-03T08:21:08;6.68;;;1.95;;
59854;SDS011;45732;52.850;6.896;2023-04-03T08:23:36;6.93;;;2.00;;
59854;SDS011;45732;52.850;6.896;2023-04-03T08:26:06;6.55;;;1.50;;
59854;SDS011;45732;52.850;6.896;2023-04-03T08:28:33;5.53;;;1.70;;
59854;SDS011;45732;52.850;6.896;2023-04-03T08:31:02;5.30;;;1.70;;
59854;SDS011;45732;52.850;6.896;2023-04-03T08:33:31;5.97;;;1.90;;
59854;SDS011;45732;52.850;6.896;2023-04-03T08:35:57;5.43;;;1.60;;
59854;SDS011;45732;52.850;6.896;2023-04-03T08:38:23;5.20;;;1.50;;
59854;SDS011;45732;52.850;6.896;2023-04-03T08:40:59;5.80;;;1.60;;
59854;SDS011;45732;52.850;6.896;2023-04-03T08:46:05;4.55;;;1.50;;
59854;SDS011;45732;52.850;6.896;2023-04-03T08:48:35;7.40;;;1.60;;
59854;SDS011;45732;52.850;6.896;2023-04-03T08:51:04;5.85;;;1.35;;
59854;SDS011;45732;52.850;6.896;2023-04-03T08:53:46;5.15;;;1.65;;
59854;SDS011;45732;52.850;6.896;2023-04-03T08:56:24;4.55;;;1.30;;
59854;SDS011;45732;52.850;6.896;2023-04-03T08:58:58;3.55;;;1.40;;
59854;SDS011;45732;52.850;6.896;2023-04-03T09:01:28;4.43;;;1.42;;
59854;SDS011;45732;52.850;6.896;2023-04-03T09:04:05;6.43;;;1.58;;
59854;SDS011;45732;52.850;6.896;2023-04-03T09:06:39;5.68;;;1.17;;
59854;SDS011;45732;52.850;6.896;2023-04-03T09:12:21;4.88;;;1.38;;
59854;SDS011;45732;52.850;6.896;2023-04-03T09:14:57;5.60;;;1.35;;
59854;SDS011;45732;52.850;6.896;2023-04-03T09:23:50;4.05;;;1.10;;
59854;SDS011;45732;52.850;6.896;2023-04-03T09:26:19;4.18;;;1.20;;
59854;SDS011;45732;52.850;6.896;2023-04-03T09:28:46;4.15;;;1.00;;
59854;SDS011;45732;52.850;6.896;2023-04-03T09:31:18;4.38;;;1.20;;
59854;SDS011;45732;52.850;6.896;2023-04-03T09:33:49;5.35;;;1.38;;
59854;SDS011;45732;52.850;6.896;2023-04-03T09:36:36;5.15;;;1.20;;
59854;SDS011;45732;52.850;6.896;2023-04-03T09:39:04;3.80;;;1.23;;
59854;SDS011;45732;52.850;6.896;2023-04-03T09:41:30;6.40;;;1.40;;
59854;SDS011;45732;52.850;6.896;2023-04-03T09:43:58;4.35;;;1.10;;
59854;SDS011;45732;52.850;6.896;2023-04-03T09:46:31;3.42;;;1.10;;
59854;SDS011;45732;52.850;6.896;2023-04-03T09:48:59;3.78;;;1.10;;
59854;SDS011;45732;52.850;6.896;2023-04-03T09:51:27;3.10;;;0.95;;
59854;SDS011;45732;52.850;6.896;2023-04-03T09:53:54;3.90;;;1.13;;
59854;SDS011;45732;52.850;6.896;2023-04-03T09:59:07;3.72;;;1.20;;
59854;SDS011;45732;52.850;6.896;2023-04-03T10:01:41;4.45;;;1.05;;
59854;SDS011;45732;52.850;6.896;2023-04-03T10:04:20;4.03;;;1.08;;
59854;SDS011;45732;52.850;6.896;2023-04-03T10:06:48;4.35;;;1.10;;
59854;SDS011;45732;52.850;6.896;2023-04-03T10:09:20;3.60;;;1.00;;
59854;SDS011;45732;52.850;6.896;2023-04-03T10:12:07;3.22;;;1.20;;
59854;SDS011;45732;52.850;6.896;2023-04-03T10:14:39;3.47;;;1.20;;
59854;SDS011;45732;52.850;6.896;2023-04-03T10:36:25;5.10;;;1.10;;
59854;SDS011;45732;52.850;6.896;2023-04-03T10:41:59;3.88;;;1.25;;
59854;SDS011;45732;52.850;6.896;2023-04-03T10:47:35;4.05;;;1.13;;
59854;SDS011;45732;52.850;6.896;2023-04-03T10:50:24;4.15;;;0.90;;
59854;SDS011;45732;52.850;6.896;2023-04-03T10:56:08;3.20;;;1.02;;
59854;SDS011;45732;52.850;6.896;2023-04-03T10:58:47;5.05;;;1.20;;
59854;SDS011;45732;52.850;6.896;2023-04-03T11:01:41;3.00;;;1.20;;
59854;SDS011;45732;52.850;6.896;2023-04-03T11:04:10;5.10;;;1.30;;
59854;SDS011;45732;52.850;6.896;2023-04-03T11:06:39;5.53;;;1.13;;
59854;SDS011;45732;52.850;6.896;2023-04-03T11:11:51;5.00;;;1.40;;
59854;SDS011;45732;52.850;6.896;2023-04-03T11:14:26;5.13;;;1.90;;
59854;SDS011;45732;52.850;6.896;2023-04-03T11:19:45;4.28;;;1.38;;
59854;SDS011;45732;52.850;6.896;2023-04-03T11:22:32;2.72;;;1.10;;
59854;SDS011;45732;52.850;6.896;2023-04-03T11:27:42;3.20;;;1.00;;
59854;SDS011;45732;52.850;6.896;2023-04-03T11:30:22;9.77;;;1.35;;
59854;SDS011;45732;52.850;6.896;2023-04-03T11:35:47;3.22;;;1.10;;
59854;SDS011;45732;52.850;6.896;2023-04-03T11:38:26;3.15;;;1.30;;
59854;SDS011;45732;52.850;6.896;2023-04-03T11:41:01;3.08;;;1.05;;
59854;SDS011;45732;52.850;6.896;2023-04-03T11:43:30;4.40;;;1.40;;
59854;SDS011;45732;52.850;6.896;2023-04-03T11:45:58;4.80;;;1.45;;
59854;SDS011;45732;52.850;6.896;2023-04-03T11:53:41;4.03;;;1.10;;
59854;SDS011;45732;52.850;6.896;2023-04-03T12:04:21;4.43;;;1.30;;
59854;SDS011;45732;52.850;6.896;2023-04-03T12:06:49;3.03;;;1.23;;
59854;SDS011;45732;52.850;6.896;2023-04-03T12:09:26;4.43;;;1.10;;
59854;SDS011;45732;52.850;6.896;2023-04-03T12:11:52;4.10;;;1.20;;
59854;SDS011;45732;52.850;6.896;2023-04-03T12:14:22;3.03;;;1.25;;
59854;SDS011;45732;52.850;6.896;2023-04-03T12:16:50;2.97;;;1.20;;
59854;SDS011;45732;52.850;6.896;2023-04-03T12:19:35;4.18;;;1.30;;
59854;SDS011;45732;52.850;6.896;2023-04-03T12:22:06;3.88;;;1.27;;
59854;SDS011;45732;52.850;6.896;2023-04-03T12:24:38;5.32;;;1.50;;
59854;SDS011;45732;52.850;6.896;2023-04-03T12:30:04;3.50;;;1.20;;
59854;SDS011;45732;52.850;6.896;2023-04-03T12:32:56;3.33;;;1.27;;
59854;SDS011;45732;52.850;6.896;2023-04-03T12:35:29;5.53;;;1.25;;
59854;SDS011;45732;52.850;6.896;2023-04-03T12:46:19;4.93;;;1.63;;
59854;SDS011;45732;52.850;6.896;2023-04-03T12:48:51;3.92;;;1.17;;
59854;SDS011;45732;52.850;6.896;2023-04-03T12:51:27;3.83;;;1.60;;
59854;SDS011;45732;52.850;6.896;2023-04-03T12:54:19;3.88;;;1.40;;
59854;SDS011;45732;52.850;6.896;2023-04-03T12:56:48;3.97;;;1.40;;
59854;SDS011;45732;52.850;6.896;2023-04-03T12:59:21;3.15;;;1.30;;
59854;SDS011;45732;52.850;6.896;2023-04-03T13:02:01;4.18;;;1.50;;
59854;SDS011;45732;52.850;6.896;2023-04-03T13:04:28;4.90;;;1.40;;
59854;SDS011;45732;52.850;6.896;2023-04-03T13:06:57;3.97;;;1.40;;
59854;SDS011;45732;52.850;6.896;2023-04-03T13:09:29;4.32;;;1.30;;
59854;SDS011;45732;52.850;6.896;2023-04-03T13:14:25;6.50;;;1.60;;
59854;SDS011;45732;52.850;6.896;2023-04-03T13:16:57;4.10;;;1.30;;
59854;SDS011;45732;52.850;6.896;2023-04-03T13:19:25;4.03;;;1.20;;
59854;SDS011;45732;52.850;6.896;2023-04-03T13:21:56;4.65;;;1.50;;
59854;SDS011;45732;52.850;6.896;2023-04-03T13:24:29;3.70;;;1.27;;
59854;SDS011;45732;52.850;6.896;2023-04-03T13:26:57;5.07;;;1.27;;
59854;SDS011;45732;52.850;6.896;2023-04-03T13:29:33;3.28;;;1.15;;
59854;SDS011;45732;52.850;6.896;2023-04-03T13:32:01;3.45;;;1.45;;
59854;SDS011;45732;52.850;6.896;2023-04-03T13:34:36;4.30;;;1.35;;
59854;SDS011;45732;52.850;6.896;2023-04-03T13:37:04;5.82;;;1.30;;
59854;SDS011;45732;52.850;6.896;2023-04-03T13:39:31;5.55;;;1.60;;
59854;SDS011;45732;52.850;6.896;2023-04-03T13:42:48;2.92;;;1.35;;
59854;SDS011;45732;52.850;6.896;2023-04-03T13:48:10;4.63;;;1.40;;
59854;SDS011;45732;52.850;6.896;2023-04-03T13:53:23;3.22;;;1.65;;
59854;SDS011;45732;52.850;6.896;2023-04-03T13:56:08;4.63;;;1.65;;
59854;SDS011;45732;52.850;6.896;2023-04-03T13:58:51;4.00;;;1.40;;
59854;SDS011;45732;52.850;6.896;2023-04-03T14:01:22;3.85;;;1.48;;
59854;SDS011;45732;52.850;6.896;2023-04-03T14:06:21;3.00;;;1.40;;
59854;SDS011;45732;52.850;6.896;2023-04-03T14:08:47;5.32;;;1.58;;
59854;SDS011;45732;52.850;6.896;2023-04-03T14:11:15;5.50;;;1.80;;
59854;SDS011;45732;52.850;6.896;2023-04-03T14:13:44;4.10;;;1.60;;
59854;SDS011;45732;52.850;6.896;2023-04-03T14:16:21;3.50;;;1.60;;
59854;SDS011;45732;52.850;6.896;2023-04-03T14:18:49;7.10;;;1.70;;
59854;SDS011;45732;52.850;6.896;2023-04-03T14:21:16;4.03;;;1.63;;
59854;SDS011;45732;52.850;6.896;2023-04-03T14:23:43;4.68;;;1.63;;
59854;SDS011;45732;52.850;6.896;2023-04-03T14:26:14;4.20;;;1.58;;
59854;SDS011;45732;52.850;6.896;2023-04-03T14:31:09;5.22;;;1.73;;
59854;SDS011;45732;52.850;6.896;2023-04-03T14:33:36;4.20;;;1.50;;
59854;SDS011;45732;52.850;6.896;2023-04-03T14:38:37;5.97;;;1.60;;
59854;SDS011;45732;52.850;6.896;2023-04-03T14:41:03;4.38;;;1.65;;
59854;SDS011;45732;52.850;6.896;2023-04-03T14:43:29;3.90;;;1.50;;
59854;SDS011;45732;52.850;6.896;2023-04-03T14:45:55;5.63;;;1.60;;
59854;SDS011;45732;52.850;6.896;2023-04-03T14:48:22;3.53;;;1.40;;
59854;SDS011;45732;52.850;6.896;2023-04-03T14:50:51;4.53;;;1.40;;
59854;SDS011;45732;52.850;6.896;2023-04-03T14:53:17;3.95;;;1.73;;
59854;SDS011;45732;52.850;6.896;2023-04-03T14:55:47;5.50;;;1.60;;
59854;SDS011;45732;52.850;6.896;2023-04-03T14:58:15;3.85;;;1.60;;
59854;SDS011;45732;52.850;6.896;2023-04-03T15:00:42;4.20;;;1.45;;
59854;SDS011;45732;52.850;6.896;2023-04-03T15:03:12;4.82;;;1.60;;
59854;SDS011;45732;52.850;6.896;2023-04-03T15:05:43;3.40;;;1.52;;
59854;SDS011;45732;52.850;6.896;2023-04-03T15:08:17;5.07;;;1.83;;
59854;SDS011;45732;52.850;6.896;2023-04-03T15:10:49;3.92;;;1.40;;
59854;SDS011;45732;52.850;6.896;2023-04-03T15:13:18;3.88;;;1.33;;
59854;SDS011;45732;52.850;6.896;2023-04-03T15:16:25;4.43;;;1.50;;
59854;SDS011;45732;52.850;6.896;2023-04-03T15:18:51;6.53;;;1.58;;
59854;SDS011;45732;52.850;6.896;2023-04-03T15:21:17;4.47;;;1.50;;
59854;SDS011;45732;52.850;6.896;2023-04-03T15:23:43;4.93;;;1.50;;
59854;SDS011;45732;52.850;6.896;2023-04-03T15:26:08;5.13;;;1.90;;
59854;SDS011;45732;52.850;6.896;2023-04-03T15:28:38;5.32;;;1.60;;
59854;SDS011;45732;52.850;6.896;2023-04-03T15:31:05;5.20;;;1.67;;
59854;SDS011;45732;52.850;6.896;2023-04-03T15:33:32;3.72;;;1.40;;
59854;SDS011;45732;52.850;6.896;2023-04-03T15:35:59;4.88;;;1.48;;
59854;SDS011;45732;52.850;6.896;2023-04-03T15:38:25;4.22;;;1.60;;
59854;SDS011;45732;52.850;6.896;2023-04-03T15:40:51;3.97;;;1.60;;
59854;SDS011;45732;52.850;6.896;2023-04-03T15:43:16;4.43;;;1.40;;
59854;SDS011;45732;52.850;6.896;2023-04-03T15:45:42;2.83;;;1.30;;
59854;SDS011;45732;52.850;6.896;2023-04-03T15:48:09;4.10;;;1.52;;
59854;SDS011;45732;52.850;6.896;2023-04-03T15:50:35;5.07;;;1.52;;
59854;SDS011;45732;52.850;6.896;2023-04-03T15:53:02;3.42;;;1.50;;
59854;SDS011;45732;52.850;6.896;2023-04-03T15:55:28;3.83;;;1.40;;
59854;SDS011;45732;52.850;6.896;2023-04-03T15:57:55;4.63;;;1.60;;
59854;SDS011;45732;52.850;6.896;2023-04-03T16:00:22;5.18;;;1.30;;
59854;SDS011;45732;52.850;6.896;2023-04-03T16:02:50;4.15;;;1.48;;
59854;SDS011;45732;52.850;6.896;2023-04-03T16:05:20;4.95;;;1.42;;
59854;SDS011;45732;52.850;6.896;2023-04-03T16:07:46;3.95;;;1.60;;
59854;SDS011;45732;52.850;6.896;2023-04-03T16:10:13;3.95;;;1.27;;
59854;SDS011;45732;52.850;6.896;2023-04-03T16:12:40;3.35;;;1.38;;
59854;SDS011;45732;52.850;6.896;2023-04-03T16:15:06;4.00;;;1.40;;
59854;SDS011;45732;52.850;6.896;2023-04-03T16:17:33;2.78;;;1.30;;
59854;SDS011;45732;52.850;6.896;2023-04-03T16:20:06;4.25;;;1.40;;
59854;SDS011;45732;52.850;6.896;2023-04-03T16:22:34;4.75;;;1.38;;
59854;SDS011;45732;52.850;6.896;2023-04-03T16:25:00;4.68;;;1.80;;
59854;SDS011;45732;52.850;6.896;2023-04-03T16:27:26;3.97;;;1.30;;
59854;SDS011;45732;52.850;6.896;2023-04-03T16:29:56;3.25;;;1.50;;
59854;SDS011;45732;52.850;6.896;2023-04-03T16:32:22;3.10;;;1.25;;
59854;SDS011;45732;52.850;6.896;2023-04-03T16:34:49;4.10;;;1.35;;
59854;SDS011;45732;52.850;6.896;2023-04-03T16:37:16;3.97;;;1.60;;
59854;SDS011;45732;52.850;6.896;2023-04-03T16:39:42;3.97;;;1.30;;
59854;SDS011;45732;52.850;6.896;2023-04-03T16:42:08;4.20;;;1.40;;